sensor_id;sensor_type;location;lat;lon;timestamp;temperature;humidity
70166;SHT30;57541;47.408;18.822;2022-09-09T00:00:26;17.66;93.75
70166;SHT30;57541;47.408;18.822;2022-09-09T00:01:10;17.71;93.41
70166;SHT30;57541;47.408;18.822;2022-09-09T00:02:28;17.66;93.68
70166;SHT30;57541;47.408;18.822;2022-09-09T00:03:12;17.68;93.74
70166;SHT30;57541;47.408;18.822;2022-09-09T00:03:53;17.74;93.72
70166;SHT30;57541;47.408;18.822;2022-09-09T00:04:35;17.74;93.57
70166;SHT30;57541;47.408;18.822;2022-09-09T00:05:29;17.66;93.52
70166;SHT30;57541;47.408;18.822;2022-09-09T00:07:04;17.64;93.62
70166;SHT30;57541;47.408;18.822;2022-09-09T00:07:52;17.64;93.77
70166;SHT30;57541;47.408;18.822;2022-09-09T00:08:31;17.61;94.16
70166;SHT30;57541;47.408;18.822;2022-09-09T00:09:16;17.62;94.29
70166;SHT30;57541;47.408;18.822;2022-09-09T00:10:58;17.54;94.15
70166;SHT30;57541;47.408;18.822;2022-09-09T00:11:39;17.54;93.90
70166;SHT30;57541;47.408;18.822;2022-09-09T00:12:18;17.59;94.18
70166;SHT30;57541;47.408;18.822;2022-09-09T00:13:52;17.55;94.04
70166;SHT30;57541;47.408;18.822;2022-09-09T00:15:07;17.55;94.33
70166;SHT30;57541;47.408;18.822;2022-09-09T00:15:56;17.51;93.92
70166;SHT30;57541;47.408;18.822;2022-09-09T00:16:32;17.55;94.02
70166;SHT30;57541;47.408;18.822;2022-09-09T00:17:36;17.51;93.82
70166;SHT30;57541;47.408;18.822;2022-09-09T00:18:13;17.49;93.77
70166;SHT30;57541;47.408;18.822;2022-09-09T00:19:07;17.58;93.93
70166;SHT30;57541;47.408;18.822;2022-09-09T00:19:50;17.59;94.35
70166;SHT30;57541;47.408;18.822;2022-09-09T00:20:44;17.57;93.77
70166;SHT30;57541;47.408;18.822;2022-09-09T00:21:23;17.62;93.57
70166;SHT30;57541;47.408;18.822;2022-09-09T00:22:03;17.58;93.90
70166;SHT30;57541;47.408;18.822;2022-09-09T00:22:36;17.61;93.75
70166;SHT30;57541;47.408;18.822;2022-09-09T00:23:18;17.64;94.07
70166;SHT30;57541;47.408;18.822;2022-09-09T00:23:53;17.69;94.20
70166;SHT30;57541;47.408;18.822;2022-09-09T00:25:21;17.66;93.79
70166;SHT30;57541;47.408;18.822;2022-09-09T00:26:46;17.64;93.67
70166;SHT30;57541;47.408;18.822;2022-09-09T00:27:04;17.62;93.79
70166;SHT30;57541;47.408;18.822;2022-09-09T00:27:48;17.59;93.89
70166;SHT30;57541;47.408;18.822;2022-09-09T00:28:23;17.57;94.15
70166;SHT30;57541;47.408;18.822;2022-09-09T00:29:58;17.65;93.81
70166;SHT30;57541;47.408;18.822;2022-09-09T00:30:34;17.58;94.02
70166;SHT30;57541;47.408;18.822;2022-09-09T00:31:13;17.49;93.99
70166;SHT30;57541;47.408;18.822;2022-09-09T00:31:45;17.51;94.15
70166;SHT30;57541;47.408;18.822;2022-09-09T00:32:18;17.54;94.20
70166;SHT30;57541;47.408;18.822;2022-09-09T00:32:57;17.54;93.92
70166;SHT30;57541;47.408;18.822;2022-09-09T00:33:30;17.51;94.30
70166;SHT30;57541;47.408;18.822;2022-09-09T00:34:12;17.52;94.18
70166;SHT30;57541;47.408;18.822;2022-09-09T00:34:52;17.49;94.10
70166;SHT30;57541;47.408;18.822;2022-09-09T00:35:40;17.41;94.59
70166;SHT30;57541;47.408;18.822;2022-09-09T00:36:16;17.42;94.40
70166;SHT30;57541;47.408;18.822;2022-09-09T00:36:50;17.45;94.27
70166;SHT30;57541;47.408;18.822;2022-09-09T00:37:25;17.44;93.84
70166;SHT30;57541;47.408;18.822;2022-09-09T00:38:02;17.47;94.08
70166;SHT30;57541;47.408;18.822;2022-09-09T00:38:43;17.47;93.83
70166;SHT30;57541;47.408;18.822;2022-09-09T00:39:32;17.48;93.82
70166;SHT30;57541;47.408;18.822;2022-09-09T00:40:18;17.48;93.87
70166;SHT30;57541;47.408;18.822;2022-09-09T00:41:03;17.54;93.77
70166;SHT30;57541;47.408;18.822;2022-09-09T00:42:27;17.52;93.86
70166;SHT30;57541;47.408;18.822;2022-09-09T00:43:24;17.54;93.68
70166;SHT30;57541;47.408;18.822;2022-09-09T00:44:01;17.57;94.15
70166;SHT30;57541;47.408;18.822;2022-09-09T00:44:37;17.57;93.93
70166;SHT30;57541;47.408;18.822;2022-09-09T00:46:04;17.58;94.23
70166;SHT30;57541;47.408;18.822;2022-09-09T00:46:56;17.55;94.17
70166;SHT30;57541;47.408;18.822;2022-09-09T00:47:43;17.57;94.13
70166;SHT30;57541;47.408;18.822;2022-09-09T00:48:16;17.58;94.12
70166;SHT30;57541;47.408;18.822;2022-09-09T00:49:04;17.59;94.11
70166;SHT30;57541;47.408;18.822;2022-09-09T00:50:02;17.59;94.09
70166;SHT30;57541;47.408;18.822;2022-09-09T00:50:50;17.65;93.86
70166;SHT30;57541;47.408;18.822;2022-09-09T00:52:22;17.61;94.11
70166;SHT30;57541;47.408;18.822;2022-09-09T00:54:40;17.59;94.09
70166;SHT30;57541;47.408;18.822;2022-09-09T00:56:16;17.55;94.02
70166;SHT30;57541;47.408;18.822;2022-09-09T00:57:51;17.54;93.86
70166;SHT30;57541;47.408;18.822;2022-09-09T00:58:23;17.55;93.89
70166;SHT30;57541;47.408;18.822;2022-09-09T00:59:07;17.57;94.00
70166;SHT30;57541;47.408;18.822;2022-09-09T00:59:52;17.48;94.08
70166;SHT30;57541;47.408;18.822;2022-09-09T01:00:30;17.48;94.23
70166;SHT30;57541;47.408;18.822;2022-09-09T01:01:08;17.47;94.52
70166;SHT30;57541;47.408;18.822;2022-09-09T01:01:41;17.37;94.20
70166;SHT30;57541;47.408;18.822;2022-09-09T01:02:25;17.39;94.33
70166;SHT30;57541;47.408;18.822;2022-09-09T01:03:47;17.41;94.42
70166;SHT30;57541;47.408;18.822;2022-09-09T01:04:29;17.39;94.26
70166;SHT30;57541;47.408;18.822;2022-09-09T01:05:12;17.42;94.40
70166;SHT30;57541;47.408;18.822;2022-09-09T01:06:33;17.44;94.23
70166;SHT30;57541;47.408;18.822;2022-09-09T01:07:16;17.44;94.13
70166;SHT30;57541;47.408;18.822;2022-09-09T01:07:49;17.42;94.25
70166;SHT30;57541;47.408;18.822;2022-09-09T01:09:22;17.35;94.54
70166;SHT30;57541;47.408;18.822;2022-09-09T01:09:57;17.34;94.44
70166;SHT30;57541;47.408;18.822;2022-09-09T01:10:38;17.31;94.38
70166;SHT30;57541;47.408;18.822;2022-09-09T01:11:22;17.30;94.15
70166;SHT30;57541;47.408;18.822;2022-09-09T01:12:42;17.21;94.29
70166;SHT30;57541;47.408;18.822;2022-09-09T01:13:26;17.26;94.41
70166;SHT30;57541;47.408;18.822;2022-09-09T01:15:25;17.23;94.48
70166;SHT30;57541;47.408;18.822;2022-09-09T01:15:59;17.30;94.31
70166;SHT30;57541;47.408;18.822;2022-09-09T01:16:32;17.31;94.17
70166;SHT30;57541;47.408;18.822;2022-09-09T01:17:31;17.31;94.33
70166;SHT30;57541;47.408;18.822;2022-09-09T01:18:16;17.30;94.17
70166;SHT30;57541;47.408;18.822;2022-09-09T01:18:51;17.28;94.00
70166;SHT30;57541;47.408;18.822;2022-09-09T01:19:37;17.32;94.12
70166;SHT30;57541;47.408;18.822;2022-09-09T01:20:24;17.31;94.25
70166;SHT30;57541;47.408;18.822;2022-09-09T01:22:44;17.38;94.31
70166;SHT30;57541;47.408;18.822;2022-09-09T01:26:35;17.31;94.37
70166;SHT30;57541;47.408;18.822;2022-09-09T01:27:09;17.34;94.56
70166;SHT30;57541;47.408;18.822;2022-09-09T01:27:43;17.34;94.38
70166;SHT30;57541;47.408;18.822;2022-09-09T01:28:21;17.31;94.24
70166;SHT30;57541;47.408;18.822;2022-09-09T01:28:53;17.38;94.33
70166;SHT30;57541;47.408;18.822;2022-09-09T01:29:26;17.38;94.21
70166;SHT30;57541;47.408;18.822;2022-09-09T01:29:58;17.32;94.18
70166;SHT30;57541;47.408;18.822;2022-09-09T01:30:32;17.28;94.21
70166;SHT30;57541;47.408;18.822;2022-09-09T01:31:06;17.30;94.22
70166;SHT30;57541;47.408;18.822;2022-09-09T01:31:41;17.26;94.21
70166;SHT30;57541;47.408;18.822;2022-09-09T01:32:45;17.26;94.12
70166;SHT30;57541;47.408;18.822;2022-09-09T01:33:18;17.23;94.16
70166;SHT30;57541;47.408;18.822;2022-09-09T01:33:50;17.21;94.31
70166;SHT30;57541;47.408;18.822;2022-09-09T01:34:24;17.23;94.19
70166;SHT30;57541;47.408;18.822;2022-09-09T01:34:56;17.23;94.17
70166;SHT30;57541;47.408;18.822;2022-09-09T01:35:43;17.20;94.32
70166;SHT30;57541;47.408;18.822;2022-09-09T01:37:06;17.20;94.49
70166;SHT30;57541;47.408;18.822;2022-09-09T01:37:38;17.21;94.42
70166;SHT30;57541;47.408;18.822;2022-09-09T01:38:10;17.24;94.32
70166;SHT30;57541;47.408;18.822;2022-09-09T01:38:42;17.18;94.32
70166;SHT30;57541;47.408;18.822;2022-09-09T01:39:13;17.21;94.37
70166;SHT30;57541;47.408;18.822;2022-09-09T01:39:45;17.20;94.26
70166;SHT30;57541;47.408;18.822;2022-09-09T01:40:17;17.18;94.27
70166;SHT30;57541;47.408;18.822;2022-09-09T01:40:49;17.17;94.24
70166;SHT30;57541;47.408;18.822;2022-09-09T01:41:23;17.16;94.27
70166;SHT30;57541;47.408;18.822;2022-09-09T01:41:55;17.17;94.37
70166;SHT30;57541;47.408;18.822;2022-09-09T01:42:27;17.14;94.54
70166;SHT30;57541;47.408;18.822;2022-09-09T01:42:59;17.14;94.50
70166;SHT30;57541;47.408;18.822;2022-09-09T01:43:31;17.13;94.64
70166;SHT30;57541;47.408;18.822;2022-09-09T01:44:03;17.14;94.43
70166;SHT30;57541;47.408;18.822;2022-09-09T01:44:35;17.16;94.43
70166;SHT30;57541;47.408;18.822;2022-09-09T01:45:08;17.13;94.79
70166;SHT30;57541;47.408;18.822;2022-09-09T01:45:41;17.18;94.79
70166;SHT30;57541;47.408;18.822;2022-09-09T01:46:14;17.23;94.85
70166;SHT30;57541;47.408;18.822;2022-09-09T01:46:46;17.24;94.78
70166;SHT30;57541;47.408;18.822;2022-09-09T01:47:18;17.24;94.64
70166;SHT30;57541;47.408;18.822;2022-09-09T01:47:51;17.21;94.62
70166;SHT30;57541;47.408;18.822;2022-09-09T01:48:24;17.28;94.73
70166;SHT30;57541;47.408;18.822;2022-09-09T01:48:57;17.30;94.64
70166;SHT30;57541;47.408;18.822;2022-09-09T01:49:29;17.30;94.38
70166;SHT30;57541;47.408;18.822;2022-09-09T01:50:01;17.28;94.58
70166;SHT30;57541;47.408;18.822;2022-09-09T01:50:34;17.24;94.33
70166;SHT30;57541;47.408;18.822;2022-09-09T01:51:08;17.24;94.41
70166;SHT30;57541;47.408;18.822;2022-09-09T01:51:41;17.28;94.58
70166;SHT30;57541;47.408;18.822;2022-09-09T01:52:14;17.21;94.54
70166;SHT30;57541;47.408;18.822;2022-09-09T01:52:48;17.21;94.77
70166;SHT30;57541;47.408;18.822;2022-09-09T01:53:22;17.17;94.77
70166;SHT30;57541;47.408;18.822;2022-09-09T01:53:54;17.17;94.53
70166;SHT30;57541;47.408;18.822;2022-09-09T01:54:28;17.13;94.59
70166;SHT30;57541;47.408;18.822;2022-09-09T01:55:01;17.11;94.70
70166;SHT30;57541;47.408;18.822;2022-09-09T01:55:49;17.14;94.61
70166;SHT30;57541;47.408;18.822;2022-09-09T01:57:24;17.08;94.82
70166;SHT30;57541;47.408;18.822;2022-09-09T01:59:18;17.08;94.55
70166;SHT30;57541;47.408;18.822;2022-09-09T02:00:07;17.13;94.80
70166;SHT30;57541;47.408;18.822;2022-09-09T02:02:23;17.11;94.57
70166;SHT30;57541;47.408;18.822;2022-09-09T02:03:13;17.16;94.67
70166;SHT30;57541;47.408;18.822;2022-09-09T02:03:52;17.16;94.72
70166;SHT30;57541;47.408;18.822;2022-09-09T02:06:25;17.14;94.58
70166;SHT30;57541;47.408;18.822;2022-09-09T02:07:00;17.18;94.81
70166;SHT30;57541;47.408;18.822;2022-09-09T02:07:48;17.21;94.70
70166;SHT30;57541;47.408;18.822;2022-09-09T02:08:33;17.20;94.51
70166;SHT30;57541;47.408;18.822;2022-09-09T02:09:07;17.23;94.69
70166;SHT30;57541;47.408;18.822;2022-09-09T02:09:44;17.27;94.67
70166;SHT30;57541;47.408;18.822;2022-09-09T02:11:06;17.14;94.51
70166;SHT30;57541;47.408;18.822;2022-09-09T02:11:36;17.18;94.65
70166;SHT30;57541;47.408;18.822;2022-09-09T02:12:11;17.21;94.49
70166;SHT30;57541;47.408;18.822;2022-09-09T02:12:47;17.18;94.27
70166;SHT30;57541;47.408;18.822;2022-09-09T02:13:21;17.18;94.23
70166;SHT30;57541;47.408;18.822;2022-09-09T02:14:06;17.17;94.81
70166;SHT30;57541;47.408;18.822;2022-09-09T02:14:42;17.23;94.66
70166;SHT30;57541;47.408;18.822;2022-09-09T02:15:32;17.20;94.74
70166;SHT30;57541;47.408;18.822;2022-09-09T02:16:14;17.16;94.67
70166;SHT30;57541;47.408;18.822;2022-09-09T02:16:52;17.13;94.78
70166;SHT30;57541;47.408;18.822;2022-09-09T02:17:30;17.10;94.80
70166;SHT30;57541;47.408;18.822;2022-09-09T02:18:06;17.14;94.61
70166;SHT30;57541;47.408;18.822;2022-09-09T02:18:48;17.16;94.73
70166;SHT30;57541;47.408;18.822;2022-09-09T02:19:25;17.11;95.04
70166;SHT30;57541;47.408;18.822;2022-09-09T02:20:08;17.14;94.74
70166;SHT30;57541;47.408;18.822;2022-09-09T02:20:41;17.08;94.63
70166;SHT30;57541;47.408;18.822;2022-09-09T02:21:14;17.13;94.78
70166;SHT30;57541;47.408;18.822;2022-09-09T02:21:47;17.11;94.74
70166;SHT30;57541;47.408;18.822;2022-09-09T02:22:22;17.13;94.78
70166;SHT30;57541;47.408;18.822;2022-09-09T02:22:55;17.16;94.69
70166;SHT30;57541;47.408;18.822;2022-09-09T02:23:28;17.14;94.75
70166;SHT30;57541;47.408;18.822;2022-09-09T02:24:02;17.20;94.75
70166;SHT30;57541;47.408;18.822;2022-09-09T02:24:37;17.21;94.66
70166;SHT30;57541;47.408;18.822;2022-09-09T02:25:13;17.23;94.70
70166;SHT30;57541;47.408;18.822;2022-09-09T02:25:46;17.24;94.56
70166;SHT30;57541;47.408;18.822;2022-09-09T02:26:21;17.16;94.56
70166;SHT30;57541;47.408;18.822;2022-09-09T02:26:56;17.14;94.42
70166;SHT30;57541;47.408;18.822;2022-09-09T02:27:29;17.08;94.60
70166;SHT30;57541;47.408;18.822;2022-09-09T02:28:02;17.11;94.62
70166;SHT30;57541;47.408;18.822;2022-09-09T02:28:34;17.16;94.58
70166;SHT30;57541;47.408;18.822;2022-09-09T02:29:17;17.17;94.65
70166;SHT30;57541;47.408;18.822;2022-09-09T02:29:51;17.13;94.75
70166;SHT30;57541;47.408;18.822;2022-09-09T02:30:24;17.10;94.72
70166;SHT30;57541;47.408;18.822;2022-09-09T02:30:56;17.08;94.76
70166;SHT30;57541;47.408;18.822;2022-09-09T02:31:30;17.07;94.50
70166;SHT30;57541;47.408;18.822;2022-09-09T02:32:05;17.07;94.71
70166;SHT30;57541;47.408;18.822;2022-09-09T02:32:39;17.06;94.64
70166;SHT30;57541;47.408;18.822;2022-09-09T02:33:14;17.06;94.61
70166;SHT30;57541;47.408;18.822;2022-09-09T02:33:52;17.02;94.55
70166;SHT30;57541;47.408;18.822;2022-09-09T02:34:27;17.04;94.67
70166;SHT30;57541;47.408;18.822;2022-09-09T02:35:03;17.07;94.54
70166;SHT30;57541;47.408;18.822;2022-09-09T02:35:37;17.08;94.54
70166;SHT30;57541;47.408;18.822;2022-09-09T02:36:11;17.06;94.55
70166;SHT30;57541;47.408;18.822;2022-09-09T02:36:45;17.02;94.40
70166;SHT30;57541;47.408;18.822;2022-09-09T02:37:20;17.00;94.70
70166;SHT30;57541;47.408;18.822;2022-09-09T02:37:56;16.99;94.72
70166;SHT30;57541;47.408;18.822;2022-09-09T02:38:33;17.02;94.67
70166;SHT30;57541;47.408;18.822;2022-09-09T02:39:08;17.04;94.89
70166;SHT30;57541;47.408;18.822;2022-09-09T02:39:41;17.04;94.72
70166;SHT30;57541;47.408;18.822;2022-09-09T02:40:14;17.02;94.86
70166;SHT30;57541;47.408;18.822;2022-09-09T02:40:47;16.99;94.62
70166;SHT30;57541;47.408;18.822;2022-09-09T02:41:30;16.96;94.74
70166;SHT30;57541;47.408;18.822;2022-09-09T02:42:06;17.02;94.31
70166;SHT30;57541;47.408;18.822;2022-09-09T02:42:44;16.97;94.91
70166;SHT30;57541;47.408;18.822;2022-09-09T02:43:15;16.99;94.96
70166;SHT30;57541;47.408;18.822;2022-09-09T02:43:49;16.99;94.69
70166;SHT30;57541;47.408;18.822;2022-09-09T02:44:21;16.96;94.69
70166;SHT30;57541;47.408;18.822;2022-09-09T02:44:53;17.00;94.47
70166;SHT30;57541;47.408;18.822;2022-09-09T02:45:30;17.00;94.59
70166;SHT30;57541;47.408;18.822;2022-09-09T02:49:48;16.93;94.67
70166;SHT30;57541;47.408;18.822;2022-09-09T02:51:04;17.02;94.66
70166;SHT30;57541;47.408;18.822;2022-09-09T02:51:51;16.99;94.81
70166;SHT30;57541;47.408;18.822;2022-09-09T02:52:34;16.99;94.67
70166;SHT30;57541;47.408;18.822;2022-09-09T02:53:37;17.02;94.65
70166;SHT30;57541;47.408;18.822;2022-09-09T02:54:26;17.04;94.74
70166;SHT30;57541;47.408;18.822;2022-09-09T02:55:05;16.97;94.96
70166;SHT30;57541;47.408;18.822;2022-09-09T02:55:45;17.03;94.74
70166;SHT30;57541;47.408;18.822;2022-09-09T02:56:20;17.02;94.54
70166;SHT30;57541;47.408;18.822;2022-09-09T02:56:53;17.02;94.54
70166;SHT30;57541;47.408;18.822;2022-09-09T02:57:30;17.03;94.43
70166;SHT30;57541;47.408;18.822;2022-09-09T02:58:05;17.02;94.47
70166;SHT30;57541;47.408;18.822;2022-09-09T02:58:39;16.99;94.65
70166;SHT30;57541;47.408;18.822;2022-09-09T02:59:11;16.96;94.63
70166;SHT30;57541;47.408;18.822;2022-09-09T02:59:44;16.89;94.72
70166;SHT30;57541;47.408;18.822;2022-09-09T03:00:16;16.89;94.75
70166;SHT30;57541;47.408;18.822;2022-09-09T03:00:49;16.90;94.73
70166;SHT30;57541;47.408;18.822;2022-09-09T03:01:21;16.91;94.68
70166;SHT30;57541;47.408;18.822;2022-09-09T03:01:53;16.90;94.67
70166;SHT30;57541;47.408;18.822;2022-09-09T03:02:25;16.81;94.91
70166;SHT30;57541;47.408;18.822;2022-09-09T03:02:56;16.84;95.01
70166;SHT30;57541;47.408;18.822;2022-09-09T03:03:28;16.84;95.22
70166;SHT30;57541;47.408;18.822;2022-09-09T03:04:00;16.79;94.89
70166;SHT30;57541;47.408;18.822;2022-09-09T03:04:32;16.84;94.92
70166;SHT30;57541;47.408;18.822;2022-09-09T03:05:04;16.81;95.08
70166;SHT30;57541;47.408;18.822;2022-09-09T03:05:36;16.86;95.01
70166;SHT30;57541;47.408;18.822;2022-09-09T03:06:08;16.87;94.80
70166;SHT30;57541;47.408;18.822;2022-09-09T03:06:41;16.87;94.72
70166;SHT30;57541;47.408;18.822;2022-09-09T03:07:12;16.86;94.85
70166;SHT30;57541;47.408;18.822;2022-09-09T03:07:44;16.89;94.70
70166;SHT30;57541;47.408;18.822;2022-09-09T03:08:16;16.86;94.69
70166;SHT30;57541;47.408;18.822;2022-09-09T03:08:48;16.87;94.76
70166;SHT30;57541;47.408;18.822;2022-09-09T03:09:21;16.87;94.84
70166;SHT30;57541;47.408;18.822;2022-09-09T03:09:52;16.87;94.68
70166;SHT30;57541;47.408;18.822;2022-09-09T03:10:25;16.90;94.65
70166;SHT30;57541;47.408;18.822;2022-09-09T03:10:59;16.84;94.78
70166;SHT30;57541;47.408;18.822;2022-09-09T03:11:32;16.77;94.83
70166;SHT30;57541;47.408;18.822;2022-09-09T03:12:04;16.79;95.01
70166;SHT30;57541;47.408;18.822;2022-09-09T03:12:35;16.80;95.08
70166;SHT30;57541;47.408;18.822;2022-09-09T03:13:07;16.76;94.89
70166;SHT30;57541;47.408;18.822;2022-09-09T03:13:39;16.75;94.97
70166;SHT30;57541;47.408;18.822;2022-09-09T03:14:10;16.79;95.19
70166;SHT30;57541;47.408;18.822;2022-09-09T03:14:42;16.80;95.04
70166;SHT30;57541;47.408;18.822;2022-09-09T03:15:16;16.84;95.07
70166;SHT30;57541;47.408;18.822;2022-09-09T03:15:48;16.76;95.17
70166;SHT30;57541;47.408;18.822;2022-09-09T03:16:20;16.76;95.19
70166;SHT30;57541;47.408;18.822;2022-09-09T03:16:53;16.76;95.13
70166;SHT30;57541;47.408;18.822;2022-09-09T03:17:25;16.75;95.23
70166;SHT30;57541;47.408;18.822;2022-09-09T03:17:59;16.76;95.21
70166;SHT30;57541;47.408;18.822;2022-09-09T03:18:31;16.70;95.11
70166;SHT30;57541;47.408;18.822;2022-09-09T03:19:03;16.70;95.01
70166;SHT30;57541;47.408;18.822;2022-09-09T03:19:35;16.68;94.94
70166;SHT30;57541;47.408;18.822;2022-09-09T03:20:07;16.68;94.97
70166;SHT30;57541;47.408;18.822;2022-09-09T03:20:39;16.69;95.03
70166;SHT30;57541;47.408;18.822;2022-09-09T03:21:13;16.73;95.07
70166;SHT30;57541;47.408;18.822;2022-09-09T03:21:46;16.72;94.90
70166;SHT30;57541;47.408;18.822;2022-09-09T03:22:18;16.75;94.92
70166;SHT30;57541;47.408;18.822;2022-09-09T03:22:49;16.79;94.81
70166;SHT30;57541;47.408;18.822;2022-09-09T03:23:21;16.77;94.81
70166;SHT30;57541;47.408;18.822;2022-09-09T03:23:53;16.81;94.74
70166;SHT30;57541;47.408;18.822;2022-09-09T03:24:25;16.77;94.73
70166;SHT30;57541;47.408;18.822;2022-09-09T03:24:56;16.83;94.65
70166;SHT30;57541;47.408;18.822;2022-09-09T03:25:28;16.87;94.61
70166;SHT30;57541;47.408;18.822;2022-09-09T03:26:00;16.87;94.65
70166;SHT30;57541;47.408;18.822;2022-09-09T03:26:32;16.83;94.70
70166;SHT30;57541;47.408;18.822;2022-09-09T03:27:04;16.83;94.81
70166;SHT30;57541;47.408;18.822;2022-09-09T03:27:35;16.77;94.73
70166;SHT30;57541;47.408;18.822;2022-09-09T03:28:07;16.83;94.75
70166;SHT30;57541;47.408;18.822;2022-09-09T03:28:38;16.76;94.76
70166;SHT30;57541;47.408;18.822;2022-09-09T03:29:11;16.79;94.99
70166;SHT30;57541;47.408;18.822;2022-09-09T03:29:43;16.73;95.05
70166;SHT30;57541;47.408;18.822;2022-09-09T03:30:16;16.75;95.24
70166;SHT30;57541;47.408;18.822;2022-09-09T03:30:48;16.70;94.88
70166;SHT30;57541;47.408;18.822;2022-09-09T03:31:20;16.65;95.08
70166;SHT30;57541;47.408;18.822;2022-09-09T03:31:52;16.68;95.09
70166;SHT30;57541;47.408;18.822;2022-09-09T03:32:24;16.69;95.11
70166;SHT30;57541;47.408;18.822;2022-09-09T03:32:57;16.69;95.30
70166;SHT30;57541;47.408;18.822;2022-09-09T03:33:28;16.66;95.16
70166;SHT30;57541;47.408;18.822;2022-09-09T03:34:00;16.69;95.27
70166;SHT30;57541;47.408;18.822;2022-09-09T03:34:32;16.70;95.19
70166;SHT30;57541;47.408;18.822;2022-09-09T03:35:04;16.70;94.95
70166;SHT30;57541;47.408;18.822;2022-09-09T03:35:35;16.70;95.00
70166;SHT30;57541;47.408;18.822;2022-09-09T03:36:07;16.68;94.94
70166;SHT30;57541;47.408;18.822;2022-09-09T03:36:39;16.70;94.96
70166;SHT30;57541;47.408;18.822;2022-09-09T03:37:12;16.66;94.84
70166;SHT30;57541;47.408;18.822;2022-09-09T03:37:44;16.68;94.82
70166;SHT30;57541;47.408;18.822;2022-09-09T03:38:15;16.65;94.94
70166;SHT30;57541;47.408;18.822;2022-09-09T03:38:47;16.63;94.95
70166;SHT30;57541;47.408;18.822;2022-09-09T03:39:18;16.65;95.29
70166;SHT30;57541;47.408;18.822;2022-09-09T03:39:50;16.68;94.99
70166;SHT30;57541;47.408;18.822;2022-09-09T03:40:22;16.65;95.11
70166;SHT30;57541;47.408;18.822;2022-09-09T03:40:55;16.65;95.15
70166;SHT30;57541;47.408;18.822;2022-09-09T03:41:29;16.69;95.14
70166;SHT30;57541;47.408;18.822;2022-09-09T03:42:00;16.70;94.92
70166;SHT30;57541;47.408;18.822;2022-09-09T03:42:35;16.66;94.83
70166;SHT30;57541;47.408;18.822;2022-09-09T03:43:08;16.65;95.02
70166;SHT30;57541;47.408;18.822;2022-09-09T03:43:41;16.62;94.99
70166;SHT30;57541;47.408;18.822;2022-09-09T03:44:13;16.59;95.16
70166;SHT30;57541;47.408;18.822;2022-09-09T03:44:45;16.63;95.28
70166;SHT30;57541;47.408;18.822;2022-09-09T03:45:21;16.62;95.25
70166;SHT30;57541;47.408;18.822;2022-09-09T03:45:53;16.65;95.30
70166;SHT30;57541;47.408;18.822;2022-09-09T03:46:28;16.62;95.40
70166;SHT30;57541;47.408;18.822;2022-09-09T03:46:59;16.63;95.40
70166;SHT30;57541;47.408;18.822;2022-09-09T03:47:34;16.59;95.11
70166;SHT30;57541;47.408;18.822;2022-09-09T03:48:05;16.60;95.10
70166;SHT30;57541;47.408;18.822;2022-09-09T03:48:38;16.55;95.42
70166;SHT30;57541;47.408;18.822;2022-09-09T03:49:09;16.56;95.33
70166;SHT30;57541;47.408;18.822;2022-09-09T03:49:41;16.58;95.38
70166;SHT30;57541;47.408;18.822;2022-09-09T03:50:13;16.53;95.25
70166;SHT30;57541;47.408;18.822;2022-09-09T03:50:46;16.52;95.40
70166;SHT30;57541;47.408;18.822;2022-09-09T03:51:18;16.53;95.49
70166;SHT30;57541;47.408;18.822;2022-09-09T03:51:50;16.52;95.43
70166;SHT30;57541;47.408;18.822;2022-09-09T03:52:21;16.52;95.67
70166;SHT30;57541;47.408;18.822;2022-09-09T03:52:56;16.52;95.54
70166;SHT30;57541;47.408;18.822;2022-09-09T03:53:27;16.48;95.62
70166;SHT30;57541;47.408;18.822;2022-09-09T03:53:59;16.47;95.79
70166;SHT30;57541;47.408;18.822;2022-09-09T03:54:32;16.48;95.71
70166;SHT30;57541;47.408;18.822;2022-09-09T03:55:04;16.47;95.67
70166;SHT30;57541;47.408;18.822;2022-09-09T03:55:36;16.49;95.50
70166;SHT30;57541;47.408;18.822;2022-09-09T03:56:07;16.49;95.40
70166;SHT30;57541;47.408;18.822;2022-09-09T03:56:39;16.44;95.73
70166;SHT30;57541;47.408;18.822;2022-09-09T03:57:13;16.47;95.87
70166;SHT30;57541;47.408;18.822;2022-09-09T03:57:47;16.47;95.57
70166;SHT30;57541;47.408;18.822;2022-09-09T03:58:19;16.45;95.52
70166;SHT30;57541;47.408;18.822;2022-09-09T03:58:51;16.42;95.39
70166;SHT30;57541;47.408;18.822;2022-09-09T03:59:23;16.41;95.36
70166;SHT30;57541;47.408;18.822;2022-09-09T03:59:54;16.44;95.29
70166;SHT30;57541;47.408;18.822;2022-09-09T04:00:26;16.33;95.49
70166;SHT30;57541;47.408;18.822;2022-09-09T04:01:04;16.36;95.47
70166;SHT30;57541;47.408;18.822;2022-09-09T04:01:35;16.38;95.36
70166;SHT30;57541;47.408;18.822;2022-09-09T04:02:07;16.39;95.39
70166;SHT30;57541;47.408;18.822;2022-09-09T04:02:38;16.35;95.43
70166;SHT30;57541;47.408;18.822;2022-09-09T04:03:10;16.38;95.31
70166;SHT30;57541;47.408;18.822;2022-09-09T04:03:43;16.36;95.27
70166;SHT30;57541;47.408;18.822;2022-09-09T04:04:15;16.35;95.31
70166;SHT30;57541;47.408;18.822;2022-09-09T04:04:47;16.36;95.25
70166;SHT30;57541;47.408;18.822;2022-09-09T04:05:18;16.35;95.25
70166;SHT30;57541;47.408;18.822;2022-09-09T04:05:54;16.39;95.49
70166;SHT30;57541;47.408;18.822;2022-09-09T04:06:26;16.39;95.51
70166;SHT30;57541;47.408;18.822;2022-09-09T04:06:58;16.33;95.32
70166;SHT30;57541;47.408;18.822;2022-09-09T04:07:29;16.35;95.21
70166;SHT30;57541;47.408;18.822;2022-09-09T04:08:01;16.35;95.29
70166;SHT30;57541;47.408;18.822;2022-09-09T04:08:33;16.33;95.37
70166;SHT30;57541;47.408;18.822;2022-09-09T04:09:05;16.32;95.43
70166;SHT30;57541;47.408;18.822;2022-09-09T04:09:37;16.31;95.35
70166;SHT30;57541;47.408;18.822;2022-09-09T04:10:08;16.35;95.32
70166;SHT30;57541;47.408;18.822;2022-09-09T04:10:40;16.38;95.24
70166;SHT30;57541;47.408;18.822;2022-09-09T04:11:13;16.39;95.26
70166;SHT30;57541;47.408;18.822;2022-09-09T04:11:45;16.36;95.18
70166;SHT30;57541;47.408;18.822;2022-09-09T04:12:17;16.42;95.29
70166;SHT30;57541;47.408;18.822;2022-09-09T04:12:49;16.41;95.27
70166;SHT30;57541;47.408;18.822;2022-09-09T04:13:20;16.41;95.20
70166;SHT30;57541;47.408;18.822;2022-09-09T04:13:52;16.41;94.98
70166;SHT30;57541;47.408;18.822;2022-09-09T04:14:24;16.41;95.05
70166;SHT30;57541;47.408;18.822;2022-09-09T04:15:00;16.39;94.93
70166;SHT30;57541;47.408;18.822;2022-09-09T04:15:33;16.39;95.07
70166;SHT30;57541;47.408;18.822;2022-09-09T04:16:08;16.39;95.06